sensor_id;sensor_type;location;lat;lon;timestamp;pressure;altitude;pressure_sealevel;temperature;humidity
37066;BME280;22981;43.080;25.550;2022-10-18T06:15:56;101278.53;;;4.44;70.44
37066;BME280;22981;43.080;25.550;2022-10-18T06:18:24;101275.88;;;4.44;69.89
37066;BME280;22981;43.080;25.550;2022-10-18T06:20:58;101280.28;;;4.49;69.78
37066;BME280;22981;43.080;25.550;2022-10-18T06:23:26;101281.52;;;4.60;69.57
37066;BME280;22981;43.080;25.550;2022-10-18T06:26:05;101276.37;;;4.68;69.32
37066;BME280;22981;43.080;25.550;2022-10-18T06:28:34;101270.50;;;4.74;69.20
37066;BME280;22981;43.080;25.550;2022-10-18T06:31:03;101265.22;;;4.84;69.11
37066;BME280;22981;43.080;25.550;2022-10-18T06:33:31;101269.33;;;4.92;69.07
37066;BME280;22981;43.080;25.550;2022-10-18T06:36:01;101264.16;;;5.00;69.12
37066;BME280;22981;43.080;25.550;2022-10-18T06:38:30;101256.29;;;5.14;69.06
37066;BME280;22981;43.080;25.550;2022-10-18T06:40:58;101261.16;;;5.28;68.90
37066;BME280;22981;43.080;25.550;2022-10-18T06:43:26;101258.36;;;5.40;68.88
37066;BME280;22981;43.080;25.550;2022-10-18T06:45:54;101254.27;;;5.55;68.90
37066;BME280;22981;43.080;25.550;2022-10-18T06:48:22;101255.78;;;5.67;68.83
37066;BME280;22981;43.080;25.550;2022-10-18T06:50:56;101251.02;;;5.71;68.88
37066;BME280;22981;43.080;25.550;2022-10-18T06:53:26;101248.60;;;5.77;69.01
37066;BME280;22981;43.080;25.550;2022-10-18T06:56:02;101245.23;;;5.85;68.97
37066;BME280;22981;43.080;25.550;2022-10-18T06:58:31;101244.59;;;5.97;69.07
37066;BME280;22981;43.080;25.550;2022-10-18T07:01:10;101245.38;;;6.07;69.05
37066;BME280;22981;43.080;25.550;2022-10-18T07:03:38;101240.22;;;6.19;68.97
37066;BME280;22981;43.080;25.550;2022-10-18T07:06:07;101241.20;;;6.32;68.88
37066;BME280;22981;43.080;25.550;2022-10-18T07:08:36;101234.41;;;6.47;68.80
37066;BME280;22981;43.080;25.550;2022-10-18T07:11:05;101231.77;;;6.65;68.63
37066;BME280;22981;43.080;25.550;2022-10-18T07:13:33;101230.23;;;6.81;68.53
37066;BME280;22981;43.080;25.550;2022-10-18T07:16:09;101228.88;;;6.94;68.36
37066;BME280;22981;43.080;25.550;2022-10-18T07:18:39;101226.80;;;7.06;68.30
37066;BME280;22981;43.080;25.550;2022-10-18T07:21:09;101227.11;;;7.21;68.30
37066;BME280;22981;43.080;25.550;2022-10-18T07:23:39;101215.38;;;7.36;68.27
37066;BME280;22981;43.080;25.550;2022-10-18T07:26:16;101219.83;;;7.53;68.14
37066;BME280;22981;43.080;25.550;2022-10-18T07:28:46;101217.95;;;7.71;67.91
37066;BME280;22981;43.080;25.550;2022-10-18T07:31:14;101217.69;;;7.87;67.80
37066;BME280;22981;43.080;25.550;2022-10-18T07:33:42;101217.77;;;8.03;67.49
37066;BME280;22981;43.080;25.550;2022-10-18T07:36:11;101211.16;;;8.15;67.42
37066;BME280;22981;43.080;25.550;2022-10-18T07:38:39;101213.37;;;8.28;67.28
37066;BME280;22981;43.080;25.550;2022-10-18T07:41:09;101203.44;;;8.46;67.19
37066;BME280;22981;43.080;25.550;2022-10-18T07:43:39;101201.13;;;8.64;66.83
37066;BME280;22981;43.080;25.550;2022-10-18T07:46:05;101196.31;;;8.75;66.68
37066;BME280;22981;43.080;25.550;2022-10-18T07:48:33;101192.16;;;8.93;66.57
37066;BME280;22981;43.080;25.550;2022-10-18T07:51:01;101186.63;;;9.15;66.46
37066;BME280;22981;43.080;25.550;2022-10-18T07:53:29;101179.25;;;9.38;66.15
37066;BME280;22981;43.080;25.550;2022-10-18T07:56:03;101172.53;;;9.58;65.78
37066;BME280;22981;43.080;25.550;2022-10-18T07:58:27;101178.98;;;9.76;65.49
37066;BME280;22981;43.080;25.550;2022-10-18T08:00:55;101173.08;;;9.93;65.14
37066;BME280;22981;43.080;25.550;2022-10-18T08:03:22;101174.36;;;10.05;64.93
37066;BME280;22981;43.080;25.550;2022-10-18T08:05:54;101173.97;;;10.20;64.76
37066;BME280;22981;43.080;25.550;2022-10-18T08:08:23;101161.36;;;10.37;64.38
37066;BME280;22981;43.080;25.550;2022-10-18T08:10:51;101164.26;;;10.55;64.16
37066;BME280;22981;43.080;25.550;2022-10-18T08:13:19;101158.41;;;10.74;63.93
37066;BME280;22981;43.080;25.550;2022-10-18T08:15:47;101160.42;;;10.95;63.50
37066;BME280;22981;43.080;25.550;2022-10-18T08:18:15;101156.42;;;11.14;63.32
37066;BME280;22981;43.080;25.550;2022-10-18T08:20:45;101149.84;;;11.35;63.12
37066;BME280;22981;43.080;25.550;2022-10-18T08:23:13;101145.45;;;11.53;62.60
37066;BME280;22981;43.080;25.550;2022-10-18T08:25:40;101141.52;;;11.74;62.17
37066;BME280;22981;43.080;25.550;2022-10-18T08:28:08;101140.22;;;12.00;61.85
37066;BME280;22981;43.080;25.550;2022-10-18T08:30:35;101128.81;;;12.23;61.32
37066;BME280;22981;43.080;25.550;2022-10-18T08:33:03;101132.34;;;12.45;60.81
37066;BME280;22981;43.080;25.550;2022-10-18T08:35:31;101126.28;;;12.69;60.59
37066;BME280;22981;43.080;25.550;2022-10-18T08:37:58;101114.72;;;12.96;59.80
37066;BME280;22981;43.080;25.550;2022-10-18T08:40:27;101112.11;;;13.20;59.42
37066;BME280;22981;43.080;25.550;2022-10-18T08:45:36;101106.97;;;13.77;58.05
37066;BME280;22981;43.080;25.550;2022-10-18T08:48:04;101106.66;;;14.00;57.91
37066;BME280;22981;43.080;25.550;2022-10-18T08:50:35;101097.18;;;14.24;57.34
37066;BME280;22981;43.080;25.550;2022-10-18T08:53:12;101093.03;;;14.52;56.72
37066;BME280;22981;43.080;25.550;2022-10-18T08:55:37;101098.64;;;14.77;56.13
37066;BME280;22981;43.080;25.550;2022-10-18T08:58:19;101096.34;;;15.01;55.39
37066;BME280;22981;43.080;25.550;2022-10-18T09:03:48;101090.75;;;15.45;54.63
37066;BME280;22981;43.080;25.550;2022-10-18T09:06:34;101090.40;;;15.64;54.27
37066;BME280;22981;43.080;25.550;2022-10-18T09:14:48;101071.11;;;16.05;52.66
37066;BME280;22981;43.080;25.550;2022-10-18T09:20:21;101070.53;;;16.19;52.05
37066;BME280;22981;43.080;25.550;2022-10-18T09:22:58;101055.52;;;16.23;51.77
37066;BME280;22981;43.080;25.550;2022-10-18T09:25:23;101052.09;;;16.25;51.25
37066;BME280;22981;43.080;25.550;2022-10-18T09:27:56;101041.51;;;16.23;50.80
37066;BME280;22981;43.080;25.550;2022-10-18T09:30:36;101040.72;;;16.32;50.63
37066;BME280;22981;43.080;25.550;2022-10-18T09:33:01;101030.27;;;16.36;50.60
37066;BME280;22981;43.080;25.550;2022-10-18T09:35:28;101030.69;;;16.48;50.15
37066;BME280;22981;43.080;25.550;2022-10-18T09:38:07;101020.52;;;16.60;50.20
37066;BME280;22981;43.080;25.550;2022-10-18T09:40:36;101017.82;;;16.75;49.88
37066;BME280;22981;43.080;25.550;2022-10-18T09:43:13;101015.72;;;16.87;49.58
37066;BME280;22981;43.080;25.550;2022-10-18T09:45:42;101007.46;;;16.91;48.93
37066;BME280;22981;43.080;25.550;2022-10-18T09:48:28;101005.22;;;16.88;48.75
37066;BME280;22981;43.080;25.550;2022-10-18T09:51:14;101005.22;;;16.88;48.71
37066;BME280;22981;43.080;25.550;2022-10-18T09:56:33;100993.05;;;16.88;48.39
37066;BME280;22981;43.080;25.550;2022-10-18T09:59:01;100984.70;;;16.89;48.09
37066;BME280;22981;43.080;25.550;2022-10-18T10:01:30;100986.05;;;16.89;47.79
37066;BME280;22981;43.080;25.550;2022-10-18T10:03:59;100975.33;;;16.92;47.50
37066;BME280;22981;43.080;25.550;2022-10-18T10:06:32;100975.53;;;16.90;46.96
37066;BME280;22981;43.080;25.550;2022-10-18T10:09:07;100961.95;;;16.88;46.79
37066;BME280;22981;43.080;25.550;2022-10-18T10:11:37;100971.77;;;16.91;47.08
37066;BME280;22981;43.080;25.550;2022-10-18T10:14:13;100968.03;;;17.01;46.82
37066;BME280;22981;43.080;25.550;2022-10-18T10:24:47;100939.09;;;17.50;44.81
37066;BME280;22981;43.080;25.550;2022-10-18T10:27:20;100934.58;;;17.53;44.69
37066;BME280;22981;43.080;25.550;2022-10-18T10:29:51;100929.59;;;17.60;44.01
37066;BME280;22981;43.080;25.550;2022-10-18T10:32:22;100927.73;;;17.60;43.50
37066;BME280;22981;43.080;25.550;2022-10-18T10:34:50;100918.59;;;17.64;42.75
37066;BME280;22981;43.080;25.550;2022-10-18T10:37:29;100916.91;;;17.72;41.95
37066;BME280;22981;43.080;25.550;2022-10-18T10:45:30;100899.25;;;17.79;39.83
37066;BME280;22981;43.080;25.550;2022-10-18T10:48:06;100898.72;;;17.79;39.78
37066;BME280;22981;43.080;25.550;2022-10-18T10:50:46;100894.73;;;17.82;39.25
37066;BME280;22981;43.080;25.550;2022-10-18T10:53:05;100889.65;;;17.85;37.83
37066;BME280;22981;43.080;25.550;2022-10-18T10:55:34;100879.95;;;17.87;36.90
37066;BME280;22981;43.080;25.550;2022-10-18T10:58:02;100876.75;;;17.90;36.92
37066;BME280;22981;43.080;25.550;2022-10-18T11:00:36;100873.02;;;17.91;37.02
37066;BME280;22981;43.080;25.550;2022-10-18T11:03:09;100874.41;;;17.93;36.36
37066;BME280;22981;43.080;25.550;2022-10-18T11:05:46;100868.82;;;17.97;36.54
37066;BME280;22981;43.080;25.550;2022-10-18T11:08:05;100870.30;;;18.02;36.63
37066;BME280;22981;43.080;25.550;2022-10-18T11:10:38;100865.52;;;18.07;36.95
37066;BME280;22981;43.080;25.550;2022-10-18T11:13:21;100861.95;;;18.16;36.53
37066;BME280;22981;43.080;25.550;2022-10-18T11:15:49;100856.65;;;18.21;35.33
37066;BME280;22981;43.080;25.550;2022-10-18T11:18:33;100859.36;;;18.21;34.76
37066;BME280;22981;43.080;25.550;2022-10-18T11:21:07;100858.58;;;18.23;34.14
37066;BME280;22981;43.080;25.550;2022-10-18T11:23:39;100848.80;;;18.22;32.88
37066;BME280;22981;43.080;25.550;2022-10-18T11:31:49;100841.03;;;18.37;30.96
37066;BME280;22981;43.080;25.550;2022-10-18T11:37:06;100829.39;;;18.51;31.10
37066;BME280;22981;43.080;25.550;2022-10-18T11:53:33;100797.14;;;18.78;32.60
37066;BME280;22981;43.080;25.550;2022-10-18T12:04:26;100776.84;;;18.95;33.15
37066;BME280;22981;43.080;25.550;2022-10-18T12:06:51;100779.11;;;19.00;33.26
37066;BME280;22981;43.080;25.550;2022-10-18T12:09:35;100772.76;;;19.09;33.37
37066;BME280;22981;43.080;25.550;2022-10-18T12:12:20;100766.11;;;19.17;33.45
37066;BME280;22981;43.080;25.550;2022-10-18T12:17:42;100749.63;;;19.21;33.53
37066;BME280;22981;43.080;25.550;2022-10-18T12:20:22;100751.04;;;19.23;33.49
37066;BME280;22981;43.080;25.550;2022-10-18T12:23:08;100745.30;;;19.22;33.27
37066;BME280;22981;43.080;25.550;2022-10-18T12:25:37;100740.74;;;19.25;33.41
37066;BME280;22981;43.080;25.550;2022-10-18T12:28:23;100744.34;;;19.29;33.55
37066;BME280;22981;43.080;25.550;2022-10-18T12:33:43;100734.02;;;19.45;33.61
37066;BME280;22981;43.080;25.550;2022-10-18T12:39:04;100728.47;;;19.57;33.72
37066;BME280;22981;43.080;25.550;2022-10-18T12:41:34;100723.78;;;19.66;33.85
37066;BME280;22981;43.080;25.550;2022-10-18T12:44:15;100718.42;;;19.71;33.67
37066;BME280;22981;43.080;25.550;2022-10-18T12:46:51;100716.09;;;19.80;33.54
37066;BME280;22981;43.080;25.550;2022-10-18T12:49:17;100715.08;;;19.86;33.34
37066;BME280;22981;43.080;25.550;2022-10-18T12:51:56;100709.97;;;19.90;33.41
37066;BME280;22981;43.080;25.550;2022-10-18T12:54:27;100712.91;;;19.86;33.37
37066;BME280;22981;43.080;25.550;2022-10-18T12:56:56;100708.02;;;19.85;33.64
37066;BME280;22981;43.080;25.550;2022-10-18T13:09:40;100696.70;;;19.74;33.38
37066;BME280;22981;43.080;25.550;2022-10-18T13:18:13;100687.44;;;19.70;32.74
37066;BME280;22981;43.080;25.550;2022-10-18T13:20:55;100671.25;;;19.61;32.53
37066;BME280;22981;43.080;25.550;2022-10-18T13:32:34;100671.09;;;19.34;32.92
37066;BME280;22981;43.080;25.550;2022-10-18T13:35:03;100669.20;;;19.17;33.00
37066;BME280;22981;43.080;25.550;2022-10-18T13:37:31;100663.83;;;19.03;33.09
37066;BME280;22981;43.080;25.550;2022-10-18T13:40:22;100659.29;;;18.92;33.14
37066;BME280;22981;43.080;25.550;2022-10-18T13:42:50;100659.66;;;18.81;33.27
37066;BME280;22981;43.080;25.550;2022-10-18T13:50:49;100644.91;;;18.46;33.66
37066;BME280;22981;43.080;25.550;2022-10-18T13:53:23;100654.52;;;18.39;33.90
37066;BME280;22981;43.080;25.550;2022-10-18T14:01:20;100644.50;;;18.25;33.74
37066;BME280;22981;43.080;25.550;2022-10-18T14:06:35;100644.25;;;18.13;33.89
37066;BME280;22981;43.080;25.550;2022-10-18T14:11:47;100639.97;;;18.02;33.86
37066;BME280;22981;43.080;25.550;2022-10-18T14:14:44;100637.44;;;17.98;34.17
37066;BME280;22981;43.080;25.550;2022-10-18T14:25:29;100622.38;;;17.65;34.40
37066;BME280;22981;43.080;25.550;2022-10-18T14:28:04;100618.72;;;17.59;34.36
37066;BME280;22981;43.080;25.550;2022-10-18T14:30:32;100628.87;;;17.52;34.42
37066;BME280;22981;43.080;25.550;2022-10-18T14:33:01;100617.33;;;17.45;34.54
37066;BME280;22981;43.080;25.550;2022-10-18T14:35:31;100619.64;;;17.39;34.59
37066;BME280;22981;43.080;25.550;2022-10-18T14:38:01;100620.56;;;17.33;34.67
37066;BME280;22981;43.080;25.550;2022-10-18T14:40:37;100617.14;;;17.25;34.76
37066;BME280;22981;43.080;25.550;2022-10-18T14:43:11;100605.03;;;17.16;34.81
37066;BME280;22981;43.080;25.550;2022-10-18T14:45:40;100601.64;;;17.09;34.84
37066;BME280;22981;43.080;25.550;2022-10-18T14:48:22;100596.86;;;17.02;34.92
37066;BME280;22981;43.080;25.550;2022-10-18T14:50:54;100598.55;;;16.94;35.07
37066;BME280;22981;43.080;25.550;2022-10-18T14:53:27;100595.38;;;16.85;35.42
37066;BME280;22981;43.080;25.550;2022-10-18T14:56:00;100590.30;;;16.77;35.71
37066;BME280;22981;43.080;25.550;2022-10-18T14:58:34;100587.38;;;16.69;35.79
37066;BME280;22981;43.080;25.550;2022-10-18T15:01:04;100580.73;;;16.63;35.94
37066;BME280;22981;43.080;25.550;2022-10-18T15:03:35;100583.77;;;16.55;36.33
37066;BME280;22981;43.080;25.550;2022-10-18T15:06:04;100579.67;;;16.43;36.71
37066;BME280;22981;43.080;25.550;2022-10-18T15:08:35;100578.60;;;16.32;37.08
37066;BME280;22981;43.080;25.550;2022-10-18T15:11:04;100577.73;;;16.20;37.51
37066;BME280;22981;43.080;25.550;2022-10-18T15:13:34;100573.92;;;16.09;37.99
37066;BME280;22981;43.080;25.550;2022-10-18T15:16:03;100574.39;;;15.97;38.33
37066;BME280;22981;43.080;25.550;2022-10-18T15:18:31;100568.72;;;15.87;38.64
37066;BME280;22981;43.080;25.550;2022-10-18T15:21:19;100567.30;;;15.75;38.91
37066;BME280;22981;43.080;25.550;2022-10-18T15:23:50;100565.34;;;15.64;39.27
37066;BME280;22981;43.080;25.550;2022-10-18T15:26:25;100566.85;;;15.50;39.62
37066;BME280;22981;43.080;25.550;2022-10-18T15:28:56;100560.61;;;15.41;39.87
37066;BME280;22981;43.080;25.550;2022-10-18T15:31:33;100565.09;;;15.28;40.21
37066;BME280;22981;43.080;25.550;2022-10-18T15:34:30;100564.27;;;15.19;40.46
37066;BME280;22981;43.080;25.550;2022-10-18T15:36:38;100559.83;;;15.06;40.67
37066;BME280;22981;43.080;25.550;2022-10-18T15:39:26;100572.84;;;14.91;40.97
37066;BME280;22981;43.080;25.550;2022-10-18T15:41:58;100568.91;;;14.77;41.34
37066;BME280;22981;43.080;25.550;2022-10-18T15:52:28;100566.98;;;14.21;42.39
37066;BME280;22981;43.080;25.550;2022-10-18T15:54:56;100565.81;;;14.11;42.53
37066;BME280;22981;43.080;25.550;2022-10-18T15:57:24;100566.48;;;13.99;42.81
37066;BME280;22981;43.080;25.550;2022-10-18T16:00:04;100564.56;;;13.91;43.18
37066;BME280;22981;43.080;25.550;2022-10-18T16:02:32;100567.42;;;13.80;43.51
37066;BME280;22981;43.080;25.550;2022-10-18T16:05:01;100571.52;;;13.67;43.78
37066;BME280;22981;43.080;25.550;2022-10-18T16:07:29;100577.66;;;13.58;44.06
37066;BME280;22981;43.080;25.550;2022-10-18T16:09:56;100584.50;;;13.47;44.27
37066;BME280;22981;43.080;25.550;2022-10-18T16:12:24;100581.12;;;13.36;44.51
37066;BME280;22981;43.080;25.550;2022-10-18T16:14:51;100585.38;;;13.28;44.63
37066;BME280;22981;43.080;25.550;2022-10-18T16:17:19;100586.09;;;13.19;44.81
37066;BME280;22981;43.080;25.550;2022-10-18T16:19:46;100590.64;;;13.12;44.97
37066;BME280;22981;43.080;25.550;2022-10-18T16:22:14;100595.11;;;13.02;45.24
37066;BME280;22981;43.080;25.550;2022-10-18T16:24:42;100594.80;;;12.95;45.53
37066;BME280;22981;43.080;25.550;2022-10-18T16:27:09;100588.80;;;12.86;45.83
37066;BME280;22981;43.080;25.550;2022-10-18T16:29:37;100594.38;;;12.78;46.09
37066;BME280;22981;43.080;25.550;2022-10-18T16:32:06;100594.46;;;12.67;46.38
37066;BME280;22981;43.080;25.550;2022-10-18T16:34:34;100591.78;;;12.61;46.58
37066;BME280;22981;43.080;25.550;2022-10-18T16:37:01;100593.84;;;12.52;46.86
37066;BME280;22981;43.080;25.550;2022-10-18T16:39:29;100591.35;;;12.44;46.97
37066;BME280;22981;43.080;25.550;2022-10-18T16:41:58;100590.41;;;12.41;47.03
37066;BME280;22981;43.080;25.550;2022-10-18T16:44:26;100585.04;;;12.34;47.19
37066;BME280;22981;43.080;25.550;2022-10-18T16:46:53;100594.31;;;12.32;47.38
37066;BME280;22981;43.080;25.550;2022-10-18T16:49:23;100599.87;;;12.23;47.75
37066;BME280;22981;43.080;25.550;2022-10-18T16:51:52;100597.19;;;12.17;48.01
37066;BME280;22981;43.080;25.550;2022-10-18T16:54:20;100598.89;;;12.07;48.31
37066;BME280;22981;43.080;25.550;2022-10-18T16:56:48;100600.41;;;11.99;48.64
37066;BME280;22981;43.080;25.550;2022-10-18T16:59:30;100599.75;;;11.90;48.96
37066;BME280;22981;43.080;25.550;2022-10-18T17:01:57;100596.76;;;11.83;49.09
37066;BME280;22981;43.080;25.550;2022-10-18T17:04:27;100594.30;;;11.77;49.13
37066;BME280;22981;43.080;25.550;2022-10-18T17:06:56;100595.34;;;11.76;49.10
37066;BME280;22981;43.080;25.550;2022-10-18T17:09:25;100592.56;;;11.73;49.06
37066;BME280;22981;43.080;25.550;2022-10-18T17:11:53;100594.08;;;11.72;49.04
37066;BME280;22981;43.080;25.550;2022-10-18T17:14:20;100593.26;;;11.71;48.98
37066;BME280;22981;43.080;25.550;2022-10-18T17:16:48;100600.25;;;11.66;49.28
37066;BME280;22981;43.080;25.550;2022-10-18T17:19:16;100589.80;;;11.43;49.97
37066;BME280;22981;43.080;25.550;2022-10-18T17:21:43;100590.89;;;11.31;50.64
37066;BME280;22981;43.080;25.550;2022-10-18T17:24:11;100594.92;;;11.20;51.07
37066;BME280;22981;43.080;25.550;2022-10-18T17:26:38;100600.56;;;11.15;51.36
37066;BME280;22981;43.080;25.550;2022-10-18T17:29:06;100590.75;;;11.11;51.60
37066;BME280;22981;43.080;25.550;2022-10-18T17:31:34;100590.27;;;11.01;51.78
37066;BME280;22981;43.080;25.550;2022-10-18T17:34:02;100593.09;;;10.93;51.99
37066;BME280;22981;43.080;25.550;2022-10-18T17:36:31;100588.49;;;10.87;52.17
37066;BME280;22981;43.080;25.550;2022-10-18T17:38:59;100583.92;;;10.81;52.38
37066;BME280;22981;43.080;25.550;2022-10-18T17:41:27;100583.48;;;10.77;52.54
37066;BME280;22981;43.080;25.550;2022-10-18T17:43:54;100577.56;;;10.71;52.70
37066;BME280;22981;43.080;25.550;2022-10-18T17:46:22;100584.33;;;10.67;52.80
37066;BME280;22981;43.080;25.550;2022-10-18T17:48:52;100573.03;;;10.61;52.94
37066;BME280;22981;43.080;25.550;2022-10-18T17:51:22;100572.27;;;10.56;53.07
37066;BME280;22981;43.080;25.550;2022-10-18T17:53:49;100577.69;;;10.52;53.12
37066;BME280;22981;43.080;25.550;2022-10-18T17:56:17;100569.72;;;10.48;53.19
37066;BME280;22981;43.080;25.550;2022-10-18T17:58:48;100568.95;;;10.43;53.29
37066;BME280;22981;43.080;25.550;2022-10-18T18:01:16;100569.08;;;10.35;53.44
37066;BME280;22981;43.080;25.550;2022-10-18T18:03:44;100566.98;;;10.31;53.60
37066;BME280;22981;43.080;25.550;2022-10-18T18:06:16;100565.39;;;10.25;53.73
37066;BME280;22981;43.080;25.550;2022-10-18T18:08:44;100562.23;;;10.22;53.83
37066;BME280;22981;43.080;25.550;2022-10-18T18:11:13;100554.16;;;10.15;54.03
37066;BME280;22981;43.080;25.550;2022-10-18T18:13:40;100555.61;;;10.07;54.23
37066;BME280;22981;43.080;25.550;2022-10-18T18:16:12;100557.17;;;10.01;54.40
37066;BME280;22981;43.080;25.550;2022-10-18T18:18:40;100552.73;;;9.98;54.55
37066;BME280;22981;43.080;25.550;2022-10-18T18:21:08;100555.58;;;9.96;54.61
37066;BME280;22981;43.080;25.550;2022-10-18T18:23:36;100552.28;;;9.94;54.67
37066;BME280;22981;43.080;25.550;2022-10-18T18:26:04;100548.64;;;9.91;54.78
37066;BME280;22981;43.080;25.550;2022-10-18T18:28:33;100550.69;;;9.89;54.86
37066;BME280;22981;43.080;25.550;2022-10-18T18:31:09;100546.02;;;9.87;54.92
37066;BME280;22981;43.080;25.550;2022-10-18T18:33:37;100549.20;;;9.87;54.96
37066;BME280;22981;43.080;25.550;2022-10-18T18:36:05;100550.08;;;9.83;55.07
37066;BME280;22981;43.080;25.550;2022-10-18T18:38:34;100547.00;;;9.75;55.23
37066;BME280;22981;43.080;25.550;2022-10-18T18:41:16;100551.06;;;9.71;55.33
37066;BME280;22981;43.080;25.550;2022-10-18T18:43:50;100547.11;;;9.67;55.42
37066;BME280;22981;43.080;25.550;2022-10-18T18:46:14;100544.73;;;9.58;55.55
37066;BME280;22981;43.080;25.550;2022-10-18T18:48:42;100539.44;;;9.53;55.73
37066;BME280;22981;43.080;25.550;2022-10-18T18:51:12;100536.50;;;9.48;55.85
37066;BME280;22981;43.080;25.550;2022-10-18T18:53:41;100532.73;;;9.43;55.98
37066;BME280;22981;43.080;25.550;2022-10-18T18:56:12;100536.80;;;9.39;56.11
37066;BME280;22981;43.080;25.550;2022-10-18T18:58:41;100530.48;;;9.36;56.09
37066;BME280;22981;43.080;25.550;2022-10-18T19:01:11;100533.34;;;9.34;56.12
37066;BME280;22981;43.080;25.550;2022-10-18T19:03:40;100535.72;;;9.29;56.22
37066;BME280;22981;43.080;25.550;2022-10-18T19:06:11;100527.44;;;9.24;56.25
37066;BME280;22981;43.080;25.550;2022-10-18T19:08:41;100533.33;;;9.19;56.36
37066;BME280;22981;43.080;25.550;2022-10-18T19:11:15;100536.36;;;9.16;56.48
37066;BME280;22981;43.080;25.550;2022-10-18T19:13:44;100537.07;;;9.14;56.55
37066;BME280;22981;43.080;25.550;2022-10-18T19:16:28;100537.82;;;9.08;56.67
37066;BME280;22981;43.080;25.550;2022-10-18T19:21:33;100528.20;;;8.99;56.96
37066;BME280;22981;43.080;25.550;2022-10-18T19:24:02;100530.60;;;8.94;57.07
37066;BME280;22981;43.080;25.550;2022-10-18T19:26:41;100529.15;;;8.91;57.20
37066;BME280;22981;43.080;25.550;2022-10-18T19:29:33;100519.64;;;8.89;57.27
37066;BME280;22981;43.080;25.550;2022-10-18T19:32:06;100518.66;;;8.86;57.33
37066;BME280;22981;43.080;25.550;2022-10-18T19:34:34;100509.20;;;8.83;57.36
37066;BME280;22981;43.080;25.550;2022-10-18T19:37:02;100516.03;;;8.82;57.44
37066;BME280;22981;43.080;25.550;2022-10-18T19:39:31;100513.05;;;8.81;57.50
37066;BME280;22981;43.080;25.550;2022-10-18T19:42:01;100516.42;;;8.78;57.57
37066;BME280;22981;43.080;25.550;2022-10-18T19:44:32;100509.59;;;8.76;57.64
37066;BME280;22981;43.080;25.550;2022-10-18T19:47:06;100505.16;;;8.68;57.78
37066;BME280;22981;43.080;25.550;2022-10-18T19:49:30;100499.14;;;8.51;58.13
37066;BME280;22981;43.080;25.550;2022-10-18T19:51:58;100495.56;;;8.44;58.37
37066;BME280;22981;43.080;25.550;2022-10-18T19:54:26;100496.41;;;8.41;58.50
37066;BME280;22981;43.080;25.550;2022-10-18T19:56:53;100495.75;;;8.35;58.68
37066;BME280;22981;43.080;25.550;2022-10-18T19:59:21;100506.80;;;8.32;58.74
37066;BME280;22981;43.080;25.550;2022-10-18T20:01:50;100508.02;;;8.25;58.90
37066;BME280;22981;43.080;25.550;2022-10-18T20:04:17;100504.70;;;8.23;58.92
37066;BME280;22981;43.080;25.550;2022-10-18T20:06:45;100495.41;;;8.19;58.96
37066;BME280;22981;43.080;25.550;2022-10-18T20:09:13;100492.58;;;8.16;59.06
37066;BME280;22981;43.080;25.550;2022-10-18T20:11:41;100492.89;;;8.17;59.02
37066;BME280;22981;43.080;25.550;2022-10-18T20:14:08;100492.07;;;8.17;59.04
37066;BME280;22981;43.080;25.550;2022-10-18T20:16:36;100479.81;;;8.08;59.11
37066;BME280;22981;43.080;25.550;2022-10-18T20:19:05;100483.80;;;7.89;59.36
37066;BME280;22981;43.080;25.550;2022-10-18T20:21:33;100485.89;;;7.70;59.69
37066;BME280;22981;43.080;25.550;2022-10-18T20:24:03;100476.45;;;7.64;59.90
37066;BME280;22981;43.080;25.550;2022-10-18T20:26:31;100474.29;;;7.63;59.88
37066;BME280;22981;43.080;25.550;2022-10-18T20:28:59;100475.27;;;7.62;59.87
37066;BME280;22981;43.080;25.550;2022-10-18T20:31:29;100475.62;;;7.63;59.83
37066;BME280;22981;43.080;25.550;2022-10-18T20:33:59;100469.94;;;7.62;59.87
37066;BME280;22981;43.080;25.550;2022-10-18T20:36:28;100459.97;;;7.60;59.92
37066;BME280;22981;43.080;25.550;2022-10-18T20:38:56;100463.78;;;7.62;59.93
37066;BME280;22981;43.080;25.550;2022-10-18T20:41:29;100465.62;;;7.61;59.94
37066;BME280;22981;43.080;25.550;2022-10-18T20:44:02;100464.30;;;7.61;59.94
37066;BME280;22981;43.080;25.550;2022-10-18T20:46:30;100464.16;;;7.59;59.93
37066;BME280;22981;43.080;25.550;2022-10-18T20:48:58;100472.69;;;7.54;59.88
37066;BME280;22981;43.080;25.550;2022-10-18T20:51:26;100466.56;;;7.45;59.87
37066;BME280;22981;43.080;25.550;2022-10-18T20:53:53;100470.21;;;7.44;60.00
37066;BME280;22981;43.080;25.550;2022-10-18T20:56:25;100462.59;;;7.41;60.11
37066;BME280;22981;43.080;25.550;2022-10-18T20:58:55;100463.25;;;7.39;60.19
37066;BME280;22981;43.080;25.550;2022-10-18T21:01:25;100463.59;;;7.36;60.27
37066;BME280;22981;43.080;25.550;2022-10-18T21:03:54;100453.13;;;7.35;60.28
37066;BME280;22981;43.080;25.550;2022-10-18T21:06:24;100453.30;;;7.33;60.31
37066;BME280;22981;43.080;25.550;2022-10-18T21:08:54;100445.82;;;7.33;60.35
37066;BME280;22981;43.080;25.550;2022-10-18T21:11:22;100447.31;;;7.31;60.37
37066;BME280;22981;43.080;25.550;2022-10-18T21:13:51;100437.08;;;7.16;60.52
37066;BME280;22981;43.080;25.550;2022-10-18T21:16:19;100441.64;;;6.99;60.87
37066;BME280;22981;43.080;25.550;2022-10-18T21:18:47;100432.50;;;6.89;61.08
37066;BME280;22981;43.080;25.550;2022-10-18T21:21:17;100431.67;;;6.89;61.13
37066;BME280;22981;43.080;25.550;2022-10-18T21:23:46;100428.36;;;6.91;61.12
37066;BME280;22981;43.080;25.550;2022-10-18T21:26:16;100422.20;;;6.94;60.99